Wetterstation Vordersexau
Wetterdaten: Woche 06.11.23 - 12.11.23 (KW45)
Datum Zeit Temp. A. Feuchte A. Luftdruck Regen Wind Richtung Taupunkt Windchill Windben
06.11.2023 00:00 10,9 C 79 % 998,3 hPa 0,0 l/m 13,3 km/h (3 Bft) SW 7,4 C 6,9 C 18,4 km/h (3 Bft)
06.11.2023 01:00 10,8 C 79 % 999,1 hPa 0,0 l/m 12,2 km/h (2 Bft) W-SW 7,3 C 7,3 C 14,8 km/h (3 Bft)
06.11.2023 02:00 9,9 C 82 % 999,8 hPa 0,0 l/m 9,7 km/h (2 Bft) W 7,0 C 7,7 C 13,3 km/h (3 Bft)
06.11.2023 03:00 10,9 C 79 % 1000,0 hPa 0,0 l/m 6,1 km/h (2 Bft) W 7,4 C 10,9 C 9,7 km/h (2 Bft)
06.11.2023 04:00 10,9 C 78 % 1000,9 hPa 0,0 l/m 12,2 km/h (2 Bft) SW 7,2 C 7,5 C 20,9 km/h (4 Bft)
06.11.2023 05:00 10,4 C 83 % 1001,3 hPa 0,0 l/m 13,3 km/h (3 Bft) W-SW 7,6 C 6,4 C 18,4 km/h (3 Bft)
06.11.2023 06:00 10,9 C 79 % 1002,0 hPa 0,0 l/m 11,2 km/h (2 Bft) W 7,4 C 7,9 C 17,3 km/h (3 Bft)
06.11.2023 07:00 10,7 C 79 % 1002,5 hPa 0,0 l/m 8,6 km/h (2 Bft) S-SW 7,2 C 9,2 C 14,8 km/h (3 Bft)
06.11.2023 08:00 11,0 C 77 % 1002,8 hPa 0,0 l/m 8,6 km/h (2 Bft) SW 7,1 C 9,5 C 11,2 km/h (2 Bft)
06.11.2023 09:00 10,8 C 80 % 1003,3 hPa 0,0 l/m 7,2 km/h (2 Bft) S-SW 7,5 C 10,2 C 11,2 km/h (2 Bft)
06.11.2023 10:00 11,6 C 76 % 1003,8 hPa 0,0 l/m 15,8 km/h (3 Bft) W-SW 7,5 C 6,8 C 25,6 km/h (4 Bft)
06.11.2023 11:00 12,8 C 73 % 1003,8 hPa 0,0 l/m 9,7 km/h (2 Bft) W 8,1 C 10,8 C 17,3 km/h (3 Bft)
06.11.2023 12:00 12,8 C 73 % 1004,3 hPa 0,0 l/m 18,4 km/h (3 Bft) S-SW 8,1 C 7,4 C 25,6 km/h (4 Bft)
06.11.2023 13:00 12,1 C 81 % 1004,2 hPa 0,0 l/m 5,0 km/h (1 Bft) W-SW 8,9 C 12,1 C 7,2 km/h (2 Bft)
06.11.2023 14:00 13,4 C 73 % 1004,3 hPa 0,0 l/m 11,2 km/h (2 Bft) W-NW 8,7 C 10,8 C 14,8 km/h (3 Bft)
06.11.2023 15:00 14,2 C 70 % 1003,8 hPa 0,0 l/m 12,2 km/h (2 Bft) W-SW 8,8 C 11,3 C 17,3 km/h (3 Bft)
06.11.2023 16:00 12,3 C 75 % 1004,4 hPa 0,0 l/m 8,6 km/h (2 Bft) SW 8,0 C 10,9 C 11,2 km/h (2 Bft)
06.11.2023 17:00 10,6 C 87 % 1005,2 hPa 0,6 l/m 13,3 km/h (3 Bft) SW 8,5 C 6,6 C 20,9 km/h (4 Bft)
06.11.2023 18:00 10,5 C 83 % 1006,0 hPa 0,0 l/m 8,6 km/h (2 Bft) SW 7,7 C 9,0 C 13,3 km/h (3 Bft)
06.11.2023 19:00 10,4 C 81 % 1006,5 hPa 0,0 l/m 5,0 km/h (1 Bft) W-SW 7,3 C 10,4 C 7,2 km/h (2 Bft)
06.11.2023 20:00 10,6 C 80 % 1007,3 hPa 0,0 l/m 5,0 km/h (1 Bft) W-SW 7,3 C 10,6 C 7,2 km/h (2 Bft)
06.11.2023 21:00 10,8 C 78 % 1007,9 hPa 0,0 l/m 5,0 km/h (1 Bft) W-SW 7,1 C 10,8 C 6,1 km/h (2 Bft)
06.11.2023 22:00 10,1 C 79 % 1008,5 hPa 0,0 l/m 3,6 km/h (1 Bft) S 6,6 C 10,1 C 6,1 km/h (2 Bft)
06.11.2023 23:00 10,3 C 75 % 1008,5 hPa 0,0 l/m 7,2 km/h (2 Bft) W-SW 6,1 C 9,7 C 11,2 km/h (2 Bft)
07.11.2023 00:00 10,0 C 77 % 1008,8 hPa 0,0 l/m 3,6 km/h (1 Bft) S-SW 6,2 C 10,0 C 6,1 km/h (2 Bft)
07.11.2023 01:00 9,9 C 78 % 1009,1 hPa 0,0 l/m 2,5 km/h (1 Bft) SW 6,2 C 9,9 C 3,6 km/h (1 Bft)
07.11.2023 02:00 10,2 C 77 % 1009,1 hPa 0,0 l/m 3,6 km/h (1 Bft) SW 6,4 C 10,2 C 6,1 km/h (2 Bft)
07.11.2023 03:00 9,0 C 88 % 1009,3 hPa 0,3 l/m 3,6 km/h (1 Bft) S-SW 7,1 C 9,0 C 6,1 km/h (2 Bft)
07.11.2023 04:00 9,2 C 81 % 1009,2 hPa 0,0 l/m 5,0 km/h (1 Bft) S-SW 6,1 C 9,2 C 9,7 km/h (2 Bft)
07.11.2023 05:00 8,6 C 80 % 1009,1 hPa 0,0 l/m 2,5 km/h (1 Bft) SW 5,3 C 8,6 C 3,6 km/h (1 Bft)
07.11.2023 06:00 9,1 C 77 % 1009,5 hPa 0,0 l/m 5,0 km/h (1 Bft) W-SW 5,3 C 9,1 C 9,7 km/h (2 Bft)
07.11.2023 07:00 9,9 C 74 % 1009,7 hPa 0,0 l/m 12,2 km/h (2 Bft) SW 5,5 C 6,3 C 18,4 km/h (3 Bft)
07.11.2023 08:00 9,6 C 77 % 1009,8 hPa 0,0 l/m 3,6 km/h (1 Bft) W 5,8 C 9,6 C 6,1 km/h (2 Bft)
07.11.2023 09:00 10,0 C 75 % 1010,4 hPa 0,0 l/m 7,2 km/h (2 Bft) SW 5,8 C 9,4 C 11,2 km/h (2 Bft)
07.11.2023 10:00 10,4 C 74 % 1010,6 hPa 0,0 l/m 9,7 km/h (2 Bft) W-SW 6,0 C 8,2 C 17,3 km/h (3 Bft)
07.11.2023 11:00 10,7 C 74 % 1011,1 hPa 0,0 l/m 7,2 km/h (2 Bft) W-SW 6,3 C 10,1 C 13,3 km/h (3 Bft)
07.11.2023 12:00 10,0 C 81 % 1011,4 hPa 0,0 l/m 12,2 km/h (2 Bft) W-SW 6,9 C 6,4 C 17,3 km/h (3 Bft)
07.11.2023 13:00 9,5 C 86 % 1011,0 hPa 0,6 l/m 12,2 km/h (2 Bft) W-SW 7,3 C 5,8 C 18,4 km/h (3 Bft)
07.11.2023 14:00 8,5 C 91 % 1011,3 hPa 1,2 l/m 6,1 km/h (2 Bft) W-SW 7,1 C 8,5 C 7,2 km/h (2 Bft)
07.11.2023 15:00 8,9 C 88 % 1011,5 hPa 0,0 l/m 6,1 km/h (2 Bft) S-SW 7,0 C 8,9 C 11,2 km/h (2 Bft)
07.11.2023 16:00 9,1 C 84 % 1011,4 hPa 0,0 l/m 7,2 km/h (2 Bft) W 6,5 C 8,5 C 11,2 km/h (2 Bft)
07.11.2023 17:00 8,9 C 81 % 1011,7 hPa 0,0 l/m 8,6 km/h (2 Bft) W-SW 5,8 C 7,3 C 13,3 km/h (3 Bft)
07.11.2023 18:00 8,3 C 83 % 1012,5 hPa 0,0 l/m 8,6 km/h (2 Bft) SW 5,6 C 6,6 C 13,3 km/h (3 Bft)
07.11.2023 19:00 8,4 C 83 % 1013,0 hPa 0,0 l/m 3,6 km/h (1 Bft) S-SW 5,7 C 8,4 C 6,1 km/h (2 Bft)
07.11.2023 20:00 8,1 C 83 % 1013,3 hPa 0,0 l/m 6,1 km/h (2 Bft) SW 5,4 C 8,1 C 11,2 km/h (2 Bft)
07.11.2023 21:00 7,7 C 84 % 1013,7 hPa 0,0 l/m 3,6 km/h (1 Bft) W-SW 5,2 C 7,7 C 6,1 km/h (2 Bft)
07.11.2023 22:00 7,1 C 86 % 1013,9 hPa 0,0 l/m 3,6 km/h (1 Bft) SW 4,9 C 7,1 C 6,1 km/h (2 Bft)
07.11.2023 23:00 7,6 C 83 % 1014,0 hPa 0,0 l/m 1,1 km/h (1 Bft) N 4,9 C 7,6 C 2,5 km/h (1 Bft)
08.11.2023 00:00 6,1 C 89 % 1014,1 hPa 0,0 l/m 0,0 km/h (0 Bft) N 4,4 C 6,1 C 2,5 km/h (1 Bft)
08.11.2023 01:00 6,5 C 85 % 1014,3 hPa 0,0 l/m 0,0 km/h (0 Bft) W 4,2 C 6,5 C 0,0 km/h (0 Bft)
08.11.2023 02:00 7,6 C 82 % 1014,3 hPa 0,0 l/m 3,6 km/h (1 Bft) NW 4,7 C 7,6 C 7,2 km/h (2 Bft)
08.11.2023 03:00 5,4 C 89 % 1014,4 hPa 0,0 l/m 5,0 km/h (1 Bft) W-SW 3,7 C 5,4 C 6,1 km/h (2 Bft)
08.11.2023 04:00 8,0 C 81 % 1014,2 hPa 0,0 l/m 6,1 km/h (2 Bft) W 4,9 C 8,0 C 9,7 km/h (2 Bft)
08.11.2023 05:00 8,3 C 79 % 1014,5 hPa 0,0 l/m 6,1 km/h (2 Bft) SW 4,9 C 8,3 C 9,7 km/h (2 Bft)
08.11.2023 06:00 8,2 C 81 % 1014,8 hPa 0,0 l/m 6,1 km/h (2 Bft) W 5,1 C 8,2 C 7,2 km/h (2 Bft)
08.11.2023 07:00 7,2 C 85 % 1014,7 hPa 0,0 l/m 1,1 km/h (1 Bft) SW 4,9 C 7,2 C 2,5 km/h (1 Bft)
08.11.2023 08:00 8,3 C 81 % 1014,9 hPa 0,0 l/m 3,6 km/h (1 Bft) S-SW 5,2 C 8,3 C 3,6 km/h (1 Bft)
08.11.2023 09:00 8,7 C 81 % 1015,2 hPa 0,0 l/m 2,5 km/h (1 Bft) SW 5,6 C 8,7 C 3,6 km/h (1 Bft)
08.11.2023 10:00 9,5 C 79 % 1015,4 hPa 0,0 l/m 6,1 km/h (2 Bft) SW 6,0 C 9,5 C 13,3 km/h (3 Bft)
08.11.2023 11:00 10,7 C 76 % 1015,5 hPa 0,0 l/m 7,2 km/h (2 Bft) W 6,6 C 10,1 C 13,3 km/h (3 Bft)
08.11.2023 12:00 11,0 C 74 % 1015,3 hPa 0,0 l/m 11,2 km/h (2 Bft) W 6,5 C 8,1 C 13,3 km/h (3 Bft)
08.11.2023 13:00 12,2 C 70 % 1014,5 hPa 0,0 l/m 9,7 km/h (2 Bft) SW 6,9 C 10,2 C 17,3 km/h (3 Bft)
08.11.2023 14:00 12,5 C 71 % 1013,8 hPa 0,0 l/m 7,2 km/h (2 Bft) SW 7,4 C 12,0 C 13,3 km/h (3 Bft)
08.11.2023 15:00 13,1 C 65 % 1012,9 hPa 0,0 l/m 13,3 km/h (3 Bft) SW 6,7 C 9,5 C 24,5 km/h (4 Bft)
08.11.2023 16:00 12,9 C 66 % 1012,4 hPa 0,0 l/m 6,1 km/h (2 Bft) W 6,7 C 12,9 C 9,7 km/h (2 Bft)
08.11.2023 17:00 11,9 C 70 % 1011,9 hPa 0,0 l/m 1,1 km/h (1 Bft) S-SO 6,6 C 11,9 C 2,5 km/h (1 Bft)
08.11.2023 18:00 8,4 C 84 % 1011,3 hPa 0,0 l/m 2,5 km/h (1 Bft) N 5,9 C 8,4 C 2,5 km/h (1 Bft)
08.11.2023 19:00 7,2 C 88 % 1011,0 hPa 0,0 l/m 0,0 km/h (0 Bft) SO 5,3 C 7,2 C 2,5 km/h (1 Bft)
08.11.2023 20:00 5,8 C 92 % 1010,7 hPa 0,0 l/m 1,1 km/h (1 Bft) O 4,6 C 5,8 C 2,5 km/h (1 Bft)
08.11.2023 21:00 5,6 C 92 % 1009,8 hPa 0,0 l/m 1,1 km/h (1 Bft) O 4,4 C 5,6 C 3,6 km/h (1 Bft)
08.11.2023 22:00 4,8 C 94 % 1009,3 hPa 0,0 l/m 1,1 km/h (1 Bft) O 3,9 C 4,8 C 3,6 km/h (1 Bft)
08.11.2023 23:00 4,3 C 94 % 1008,8 hPa 0,0 l/m 1,1 km/h (1 Bft) N 3,4 C 4,3 C 2,5 km/h (1 Bft)
09.11.2023 00:00 3,8 C 94 % 1008,4 hPa 0,0 l/m 0,0 km/h (0 Bft) SO 2,9 C 3,8 C 2,5 km/h (1 Bft)
09.11.2023 01:00 3,6 C 93 % 1007,6 hPa 0,0 l/m 1,1 km/h (1 Bft) SO 2,6 C 3,6 C 3,6 km/h (1 Bft)
09.11.2023 02:00 3,2 C 94 % 1007,2 hPa 0,0 l/m 5,0 km/h (1 Bft) N 2,3 C 3,2 C 7,2 km/h (2 Bft)
09.11.2023 03:00 3,0 C 94 % 1006,7 hPa 0,0 l/m 0,0 km/h (0 Bft) N 2,1 C 3,0 C 3,6 km/h (1 Bft)
09.11.2023 04:00 2,4 C 94 % 1006,3 hPa 0,0 l/m 0,0 km/h (0 Bft) N 1,5 C 2,4 C 2,5 km/h (1 Bft)
09.11.2023 05:00 2,9 C 94 % 1005,7 hPa 0,0 l/m 0,0 km/h (0 Bft) O 2,0 C 2,9 C 2,5 km/h (1 Bft)
09.11.2023 06:00 3,3 C 93 % 1004,9 hPa 0,0 l/m 1,1 km/h (1 Bft) SO 2,3 C 3,3 C 2,5 km/h (1 Bft)
09.11.2023 07:00 3,4 C 93 % 1004,7 hPa 0,0 l/m 1,1 km/h (1 Bft) O 2,4 C 3,4 C 2,5 km/h (1 Bft)
09.11.2023 08:00 5,1 C 91 % 1005,1 hPa 0,0 l/m 1,1 km/h (1 Bft) SW 3,8 C 5,1 C 2,5 km/h (1 Bft)
09.11.2023 09:00 9,6 C 72 % 1005,5 hPa 0,0 l/m 3,6 km/h (1 Bft) S-SW 4,8 C 9,6 C 3,6 km/h (1 Bft)
09.11.2023 10:00 10,3 C 73 % 1005,4 hPa 0,0 l/m 1,1 km/h (1 Bft) W 5,7 C 10,3 C 2,5 km/h (1 Bft)
09.11.2023 11:00 12,1 C 70 % 1005,1 hPa 0,0 l/m 14,8 km/h (3 Bft) SW 6,8 C 7,8 C 18,4 km/h (3 Bft)
09.11.2023 12:00 12,4 C 69 % 1005,3 hPa 0,0 l/m 9,7 km/h (2 Bft) W 6,9 C 10,4 C 13,3 km/h (3 Bft)
09.11.2023 13:00 11,3 C 78 % 1004,8 hPa 0,0 l/m 9,7 km/h (2 Bft) W-SW 7,6 C 9,2 C 13,3 km/h (3 Bft)
09.11.2023 14:00 12,1 C 75 % 1004,2 hPa 0,0 l/m 8,6 km/h (2 Bft) W-SW 7,8 C 10,7 C 11,2 km/h (2 Bft)
09.11.2023 15:00 10,6 C 80 % 1004,2 hPa 0,0 l/m 9,7 km/h (2 Bft) W-SW 7,3 C 8,4 C 17,3 km/h (3 Bft)
09.11.2023 16:00 9,8 C 89 % 1004,3 hPa 0,3 l/m 5,0 km/h (1 Bft) N 8,1 C 9,8 C 7,2 km/h (2 Bft)
09.11.2023 17:00 9,6 C 90 % 1003,8 hPa 0,0 l/m 0,0 km/h (0 Bft) S-SW 8,0 C 9,6 C 0,0 km/h (0 Bft)
09.11.2023 18:00 9,7 C 89 % 1003,7 hPa 0,0 l/m 2,5 km/h (1 Bft) S 8,0 C 9,7 C 3,6 km/h (1 Bft)
09.11.2023 19:00 9,1 C 89 % 1003,7 hPa 0,0 l/m 7,2 km/h (2 Bft) SW 7,4 C 8,5 C 11,2 km/h (2 Bft)
09.11.2023 20:00 10,0 C 84 % 1003,2 hPa 0,0 l/m 6,1 km/h (2 Bft) S 7,4 C 10,0 C 9,7 km/h (2 Bft)
09.11.2023 21:00 10,6 C 79 % 1002,4 hPa 0,0 l/m 3,6 km/h (1 Bft) S-SW 7,1 C 10,6 C 6,1 km/h (2 Bft)
09.11.2023 22:00 11,4 C 72 % 1002,1 hPa 0,0 l/m 3,6 km/h (1 Bft) W 6,5 C 11,4 C 6,1 km/h (2 Bft)
09.11.2023 23:00 11,8 C 69 % 1001,5 hPa 0,0 l/m 13,3 km/h (3 Bft) W 6,3 C 8,0 C 20,9 km/h (4 Bft)
10.11.2023 00:00 11,7 C 71 % 1000,9 hPa 0,0 l/m 15,8 km/h (3 Bft) W 6,6 C 6,9 C 24,5 km/h (4 Bft)
10.11.2023 01:00 10,3 C 79 % 1000,5 hPa 0,0 l/m 9,7 km/h (2 Bft) S-SW 6,8 C 8,1 C 13,3 km/h (3 Bft)
10.11.2023 02:00 9,1 C 86 % 1000,3 hPa 0,3 l/m 12,2 km/h (2 Bft) SW 6,9 C 5,4 C 17,3 km/h (3 Bft)
10.11.2023 03:00 8,1 C 93 % 1000,1 hPa 1,5 l/m 9,7 km/h (2 Bft) W-SW 7,0 C 5,7 C 13,3 km/h (3 Bft)
10.11.2023 04:00 7,1 C 93 % 999,4 hPa 2,1 l/m 6,1 km/h (2 Bft) W 6,0 C 7,1 C 11,2 km/h (2 Bft)
10.11.2023 05:00 7,9 C 91 % 999,5 hPa 0,0 l/m 7,2 km/h (2 Bft) S-SW 6,5 C 7,3 C 11,2 km/h (2 Bft)
10.11.2023 06:00 8,3 C 84 % 999,3 hPa 0,0 l/m 9,7 km/h (2 Bft) SW 5,8 C 5,9 C 17,3 km/h (3 Bft)
10.11.2023 07:00 8,4 C 84 % 999,5 hPa 0,0 l/m 8,6 km/h (2 Bft) W 5,9 C 6,7 C 11,2 km/h (2 Bft)
10.11.2023 08:00 8,1 C 85 % 999,8 hPa 0,0 l/m 9,7 km/h (2 Bft) W-SW 5,7 C 5,7 C 18,4 km/h (3 Bft)
10.11.2023 09:00 8,1 C 87 % 1000,2 hPa 0,0 l/m 9,7 km/h (2 Bft) W-SW 6,1 C 5,7 C 13,3 km/h (3 Bft)
10.11.2023 10:00 8,1 C 89 % 1000,5 hPa 0,0 l/m 9,7 km/h (2 Bft) W-SW 6,4 C 5,7 C 17,3 km/h (3 Bft)
10.11.2023 11:00 8,2 C 89 % 1000,8 hPa 0,3 l/m 7,2 km/h (2 Bft) S-SW 6,5 C 7,6 C 11,2 km/h (2 Bft)
10.11.2023 12:00 10,1 C 78 % 1000,9 hPa 0,0 l/m 8,6 km/h (2 Bft) S-SW 6,4 C 8,6 C 13,3 km/h (3 Bft)
10.11.2023 13:00 10,0 C 72 % 1000,3 hPa 0,0 l/m 13,3 km/h (3 Bft) S-SW 5,2 C 5,9 C 18,4 km/h (3 Bft)
10.11.2023 14:00 10,1 C 73 % 1000,3 hPa 0,0 l/m 8,6 km/h (2 Bft) SW 5,5 C 8,6 C 14,8 km/h (3 Bft)
10.11.2023 15:00 9,9 C 70 % 1000,0 hPa 0,0 l/m 9,7 km/h (2 Bft) SW 4,7 C 7,7 C 14,8 km/h (3 Bft)
10.11.2023 16:00 10,5 C 67 % 999,6 hPa 0,0 l/m 8,6 km/h (2 Bft) S 4,6 C 9,0 C 11,2 km/h (2 Bft)
10.11.2023 17:00 9,7 C 69 % 999,4 hPa 0,0 l/m 6,1 km/h (2 Bft) S-SW 4,3 C 9,7 C 9,7 km/h (2 Bft)
10.11.2023 18:00 10,0 C 67 % 999,4 hPa 0,0 l/m 7,2 km/h (2 Bft) SW 4,2 C 9,4 C 9,7 km/h (2 Bft)
10.11.2023 19:00 9,8 C 69 % 999,4 hPa 0,0 l/m 6,1 km/h (2 Bft) S 4,4 C 9,8 C 9,7 km/h (2 Bft)
10.11.2023 20:00 10,2 C 65 % 999,2 hPa 0,0 l/m 11,2 km/h (2 Bft) SW 3,9 C 7,2 C 17,3 km/h (3 Bft)
10.11.2023 21:00 9,2 C 71 % 998,9 hPa 0,0 l/m 8,6 km/h (2 Bft) SW 4,2 C 7,6 C 17,3 km/h (3 Bft)
10.11.2023 22:00 10,1 C 68 % 998,2 hPa 0,0 l/m 18,4 km/h (3 Bft) S 4,5 C 4,0 C 31,7 km/h (5 Bft)
10.11.2023 23:00 7,9 C 85 % 998,1 hPa 0,6 l/m 6,1 km/h (2 Bft) W-SW 5,5 C 7,9 C 11,2 km/h (2 Bft)
11.11.2023 00:00 8,0 C 88 % 997,4 hPa 0,6 l/m 9,7 km/h (2 Bft) SW 6,1 C 5,6 C 13,3 km/h (3 Bft)
11.11.2023 01:00 8,3 C 88 % 998,2 hPa 0,0 l/m 9,7 km/h (2 Bft) SW 6,4 C 5,9 C 14,8 km/h (3 Bft)
11.11.2023 02:00 7,7 C 94 % 999,1 hPa 0,6 l/m 8,6 km/h (2 Bft) W 6,8 C 6,0 C 13,3 km/h (3 Bft)
11.11.2023 03:00 7,4 C 96 % 1000,4 hPa 0,3 l/m 3,6 km/h (1 Bft) W 6,8 C 7,4 C 3,6 km/h (1 Bft)
11.11.2023 04:00 7,6 C 85 % 1001,2 hPa 0,0 l/m 6,1 km/h (2 Bft) W 5,2 C 7,6 C 11,2 km/h (2 Bft)
11.11.2023 05:00 7,3 C 87 % 1001,8 hPa 0,0 l/m 2,5 km/h (1 Bft) S-SW 5,3 C 7,3 C 3,6 km/h (1 Bft)
11.11.2023 06:00 7,1 C 87 % 1002,3 hPa 0,0 l/m 6,1 km/h (2 Bft) SW 5,1 C 7,1 C 11,2 km/h (2 Bft)
11.11.2023 07:00 6,9 C 85 % 1003,4 hPa 0,0 l/m 6,1 km/h (2 Bft) SW 4,6 C 6,9 C 11,2 km/h (2 Bft)
11.11.2023 08:00 6,8 C 84 % 1003,9 hPa 0,0 l/m 7,2 km/h (2 Bft) W-SW 4,3 C 6,1 C 11,2 km/h (2 Bft)
11.11.2023 09:00 6,6 C 86 % 1004,7 hPa 0,0 l/m 8,6 km/h (2 Bft) W-SW 4,4 C 4,8 C 13,3 km/h (3 Bft)
11.11.2023 10:00 7,6 C 83 % 1005,0 hPa 0,0 l/m 11,2 km/h (2 Bft) S-SW 4,9 C 4,2 C 14,8 km/h (3 Bft)
11.11.2023 11:00 9,4 C 74 % 1005,2 hPa 0,0 l/m 8,6 km/h (2 Bft) S-SW 5,0 C 7,8 C 13,3 km/h (3 Bft)
11.11.2023 12:00 9,8 C 68 % 1005,3 hPa 0,0 l/m 9,7 km/h (2 Bft) W-SW 4,2 C 7,6 C 13,3 km/h (3 Bft)
11.11.2023 13:00 9,6 C 73 % 1005,1 hPa 0,0 l/m 13,3 km/h (3 Bft) NW 5,0 C 5,4 C 18,4 km/h (3 Bft)
11.11.2023 14:00 7,4 C 91 % 1005,5 hPa 0,9 l/m 7,2 km/h (2 Bft) N-NW 6,0 C 6,8 C 9,7 km/h (2 Bft)
11.11.2023 15:00 8,9 C 82 % 1005,2 hPa 0,0 l/m 2,5 km/h (1 Bft) N 6,0 C 8,9 C 3,6 km/h (1 Bft)
11.11.2023 16:00 8,1 C 90 % 1005,1 hPa 0,0 l/m 0,0 km/h (0 Bft) W 6,6 C 8,1 C 2,5 km/h (1 Bft)
11.11.2023 17:00 7,2 C 91 % 1005,9 hPa 0,9 l/m 14,8 km/h (3 Bft) N 5,8 C 1,8 C 20,9 km/h (4 Bft)
11.11.2023 18:00 5,4 C 95 % 1006,4 hPa 0,9 l/m 0,0 km/h (0 Bft) N 4,7 C 5,4 C 0,0 km/h (0 Bft)
11.11.2023 19:00 5,2 C 97 % 1006,7 hPa 0,0 l/m 0,0 km/h (0 Bft) N 4,8 C 5,2 C 0,0 km/h (0 Bft)
11.11.2023 20:00 5,6 C 98 % 1006,6 hPa 1,8 l/m 0,0 km/h (0 Bft) S-SO 5,3 C 5,6 C 2,5 km/h (1 Bft)
11.11.2023 21:00 6,2 C 95 % 1006,6 hPa 0,3 l/m 1,1 km/h (1 Bft) N 5,5 C 6,2 C 2,5 km/h (1 Bft)
11.11.2023 22:00 6,3 C 94 % 1006,7 hPa 0,0 l/m 0,0 km/h (0 Bft) N 5,4 C 6,3 C 2,5 km/h (1 Bft)
11.11.2023 23:00 5,8 C 97 % 1006,1 hPa 0,0 l/m 0,0 km/h (0 Bft) N 5,4 C 5,8 C 2,5 km/h (1 Bft)
12.11.2023 00:00 5,3 C 98 % 1005,6 hPa 0,0 l/m 0,0 km/h (0 Bft) N 5,0 C 5,3 C 0,0 km/h (0 Bft)
12.11.2023 01:00 5,2 C 98 % 1005,1 hPa 0,0 l/m 0,0 km/h (0 Bft) N 4,9 C 5,2 C 0,0 km/h (0 Bft)
12.11.2023 02:00 4,8 C 99 % 1004,2 hPa 0,0 l/m 0,0 km/h (0 Bft) SO 4,7 C 4,8 C 0,0 km/h (0 Bft)
12.11.2023 03:00 3,6 C 99 % 1003,6 hPa 0,0 l/m 1,1 km/h (1 Bft) N 3,5 C 3,6 C 2,5 km/h (1 Bft)
12.11.2023 04:00 3,4 C 99 % 1003,0 hPa 0,0 l/m 0,0 km/h (0 Bft) SO 3,3 C 3,4 C 0,0 km/h (0 Bft)
12.11.2023 05:00 3,2 C 99 % 1002,0 hPa 0,0 l/m 1,1 km/h (1 Bft) N 3,1 C 3,2 C 2,5 km/h (1 Bft)
12.11.2023 06:00 3,2 C 99 % 1001,6 hPa 0,0 l/m 0,0 km/h (0 Bft) N 3,1 C 3,2 C 0,0 km/h (0 Bft)
12.11.2023 07:00 3,3 C 99 % 1002,2 hPa 0,0 l/m 0,0 km/h (0 Bft) N 3,2 C 3,3 C 0,0 km/h (0 Bft)
12.11.2023 08:00 3,5 C 99 % 1002,6 hPa 0,0 l/m 0,0 km/h (0 Bft) N 3,4 C 3,5 C 0,0 km/h (0 Bft)
12.11.2023 09:00 3,9 C 99 % 1003,0 hPa 0,0 l/m 0,0 km/h (0 Bft) SO 3,8 C 3,9 C 2,5 km/h (1 Bft)
12.11.2023 10:00 4,9 C 98 % 1003,0 hPa 0,0 l/m 2,5 km/h (1 Bft) N 4,6 C 4,9 C 3,6 km/h (1 Bft)
12.11.2023 11:00 5,5 C 96 % 1003,4 hPa 0,0 l/m 0,0 km/h (0 Bft) N 4,9 C 5,5 C 0,0 km/h (0 Bft)
12.11.2023 12:00 6,2 C 91 % 1003,8 hPa 0,0 l/m 0,0 km/h (0 Bft) N 4,8 C 6,2 C 2,5 km/h (1 Bft)
12.11.2023 13:00 6,2 C 92 % 1003,5 hPa 0,0 l/m 0,0 km/h (0 Bft) NW 5,0 C 6,2 C 0,0 km/h (0 Bft)
12.11.2023 14:00 6,2 C 94 % 1003,1 hPa 1,2 l/m 1,1 km/h (1 Bft) W 5,3 C 6,2 C 3,6 km/h (1 Bft)
12.11.2023 15:00 5,9 C 97 % 1002,9 hPa 0,6 l/m 1,1 km/h (1 Bft) N 5,5 C 5,9 C 2,5 km/h (1 Bft)
12.11.2023 16:00 5,9 C 98 % 1002,8 hPa 2,1 l/m 0,0 km/h (0 Bft) N 5,6 C 5,9 C 0,0 km/h (0 Bft)
12.11.2023 17:00 5,7 C 99 % 1003,0 hPa 0,9 l/m 0,0 km/h (0 Bft) NW 5,6 C 5,7 C 2,5 km/h (1 Bft)
12.11.2023 18:00 6,1 C 99 % 1003,5 hPa 0,6 l/m 1,1 km/h (1 Bft) N 6,0 C 6,1 C 2,5 km/h (1 Bft)
12.11.2023 19:00 6,9 C 99 % 1004,3 hPa 0,0 l/m 0,0 km/h (0 Bft) N 6,8 C 6,9 C 0,0 km/h (0 Bft)
12.11.2023 20:00 7,6 C 99 % 1005,5 hPa 0,0 l/m 0,0 km/h (0 Bft) N 7,5 C 7,6 C 0,0 km/h (0 Bft)
12.11.2023 21:00 8,2 C 99 % 1005,9 hPa 0,0 l/m 0,0 km/h (0 Bft) W 8,1 C 8,2 C 0,0 km/h (0 Bft)
12.11.2023 22:00 11,6 C 89 % 1006,1 hPa 0,0 l/m 9,7 km/h (2 Bft) W-SW 9,8 C 9,5 C 14,8 km/h (3 Bft)
12.11.2023 23:00 11,9 C 89 % 1006,4 hPa 0,0 l/m 11,2 km/h (2 Bft) S-SW 10,1 C 9,1 C 17,3 km/h (3 Bft)
Min-Datum _ 09.11.23 08.11.23 11.11.23 - 08.11.23 - 09.11.23 11.11.23 08.11.23
_ Min-Zeit 04:13 15:13 00:13 - 00:13 - 04:13 17:13 01:13
Minimum _ 2,4 C 65 % 997,4 hPa - 0,0 km/h (0 Bft) - 1,5 C 1,8 C 0,0 km/h (0 Bft)
Max-Datum _ 06.11.23 12.11.23 08.11.23 10.11.23 06.11.23 - 12.11.23 08.11.23 10.11.23
_ Max-Zeit 15:13 02:13 11:13 04:13 12:13 - 23:13 16:13 22:13
Maximum _ 14,2 C 99 % 1015,5 hPa 2,1 l/m 18,4 km/h
S-SW (3 Bft)
- 10,1 C 12,9 C 31,7 km/h
S (5 Bft)
Durchschnitt _ 8,4 C 84 % 1005,7 hPa #19,5 l/m 5,8 km/h (2 Bft) SW 5,8 C 7,4 C 9,3 km/h (2 Bft)
www.sexauwetter.de